Time;durP1;ratioP1;P1;durP2;ratioP2;P2;SDS_P1;SDS_P2;PMS_P1;PMS_P2;Temp;Humidity;BMP_temperature;BMP_pressure;BME280_temperature;BME280_humidity;BME280_pressure;Samples;Min_cycle;Max_cycle;Signal;HPM_P1;HPM_P2
2022/02/20 00:00:52;;;;;;;27.30;10.10;;;;;;;1.47;49.87;100649.00;1413010;92;21931;-86
2022/02/20 00:03:18;;;;;;;23.57;9.93;;;;;;;1.46;50.22;100641.61;1431116;90;22478;-86
2022/02/20 00:05:45;;;;;;;20.03;8.93;;;;;;;1.46;50.63;100649.91;1416905;92;21311;-84
2022/02/20 00:08:12;;;;;;;24.57;8.65;;;;;;;1.41;50.93;100654.09;1428016;92;21751;-83
2022/02/20 00:10:38;;;;;;;21.95;7.87;;;;;;;1.39;50.96;100655.09;1427336;92;22346;-84
2022/02/20 00:13:04;;;;;;;20.48;7.70;;;;;;;1.33;50.49;100653.19;1425277;91;21400;-83
2022/02/20 00:15:32;;;;;;;13.23;6.03;;;;;;;1.32;50.52;100657.17;1417663;91;21515;-83
2022/02/20 00:18:01;;;;;;;17.05;7.40;;;;;;;1.31;50.33;100657.64;1425976;91;22227;-84
2022/02/20 00:20:31;;;;;;;17.83;7.63;;;;;;;1.30;50.71;100653.36;1427233;90;21406;-83
2022/02/20 00:23:00;;;;;;;17.15;6.95;;;;;;;1.28;51.03;100656.97;1420726;92;21805;-84
2022/02/20 00:25:31;;;;;;;12.78;6.33;;;;;;;1.25;50.79;100654.06;1411844;92;21547;-86
2022/02/20 00:27:55;;;;;;;13.23;6.33;;;;;;;1.23;51.05;100655.06;1420390;92;21612;-87
2022/02/20 00:30:21;;;;;;;11.67;6.33;;;;;;;1.17;51.96;100658.84;1416513;92;23103;-87
2022/02/20 00:32:47;;;;;;;11.68;5.42;;;;;;;1.05;52.77;100666.02;1425794;92;22421;-86
2022/02/20 00:35:13;;;;;;;16.13;5.33;;;;;;;0.96;52.38;100667.81;1418954;92;21479;-87
2022/02/20 00:37:39;;;;;;;16.57;5.93;;;;;;;0.93;52.91;100667.97;1420250;92;21486;-87
2022/02/20 00:40:06;;;;;;;9.98;5.42;;;;;;;0.90;52.59;100664.59;1401968;92;21581;-87
2022/02/20 00:42:32;;;;;;;15.32;5.17;;;;;;;0.88;52.69;100667.73;1413473;92;21628;-87
2022/02/20 00:44:58;;;;;;;14.93;6.15;;;;;;;0.86;53.08;100666.99;1422887;92;21390;-87
2022/02/20 00:47:24;;;;;;;11.20;4.83;;;;;;;0.84;53.63;100664.08;1398024;94;22355;-87
2022/02/20 00:49:51;;;;;;;9.73;4.80;;;;;;;0.83;53.60;100664.52;1399236;93;22313;-87
2022/02/20 00:52:17;;;;;;;11.70;5.05;;;;;;;0.79;53.18;100666.08;1381958;95;22397;-87
2022/02/20 00:54:43;;;;;;;13.32;5.03;;;;;;;0.79;53.06;100660.40;1397296;93;21331;-88
2022/02/20 00:57:09;;;;;;;11.25;4.67;;;;;;;0.76;54.27;100652.74;1405956;93;21399;-87
2022/02/20 00:59:35;;;;;;;12.47;5.20;;;;;;;0.73;54.16;100654.20;1378452;95;21362;-87
2022/02/20 01:02:03;;;;;;;9.60;4.80;;;;;;;0.69;54.59;100655.27;1401760;93;22600;-87
2022/02/20 01:04:29;;;;;;;12.75;4.55;;;;;;;0.66;54.63;100655.42;1409656;93;22019;-87
2022/02/20 01:06:58;;;;;;;8.33;3.60;;;;;;;0.64;54.90;100658.13;1377268;95;21517;-84
2022/02/20 01:09:24;;;;;;;9.93;4.15;;;;;;;0.60;55.52;100657.88;1383454;92;21592;-85
2022/02/20 01:11:49;;;;;;;11.20;4.00;;;;;;;0.57;54.93;100661.95;1452121;90;21483;-85
2022/02/20 01:14:16;;;;;;;10.27;4.43;;;;;;;0.56;55.28;100654.23;1445322;90;21402;-85
2022/02/20 01:16:42;;;;;;;10.82;4.65;;;;;;;0.54;54.87;100651.69;1447667;89;22496;-85
2022/02/20 01:19:08;;;;;;;8.98;4.35;;;;;;;0.54;54.89;100644.34;1444659;90;21524;-86
2022/02/20 01:21:34;;;;;;;9.13;4.12;;;;;;;0.51;54.80;100637.52;1437533;90;21407;-85
2022/02/20 01:24:00;;;;;;;8.15;3.65;;;;;;;0.50;55.84;100635.02;1454602;89;21571;-86
2022/02/20 01:26:26;;;;;;;8.00;3.80;;;;;;;0.48;55.21;100631.64;1441845;90;21501;-86
2022/02/20 01:28:52;;;;;;;9.67;4.10;;;;;;;0.47;55.71;100624.75;1455927;89;22121;-85
2022/02/20 01:31:18;;;;;;;6.65;3.70;;;;;;;0.47;56.22;100632.10;1450476;90;21420;-85
2022/02/20 01:33:44;;;;;;;9.57;3.80;;;;;;;0.47;56.90;100625.59;1442753;90;21273;-85
2022/02/20 01:36:10;;;;;;;11.55;4.15;;;;;;;0.46;56.88;100625.19;1442457;90;22152;-86
2022/02/20 01:38:37;;;;;;;7.17;3.62;;;;;;;0.44;57.23;100630.49;1438615;90;21458;-86
2022/02/20 01:41:03;;;;;;;8.60;3.87;;;;;;;0.44;56.46;100622.68;1457044;89;21335;-86
2022/02/20 01:43:30;;;;;;;9.73;3.72;;;;;;;0.42;56.60;100618.00;1446123;90;21421;-86
2022/02/20 01:45:56;;;;;;;11.15;4.08;;;;;;;0.43;56.48;100622.31;1459026;89;21432;-86
2022/02/20 01:48:22;;;;;;;7.08;3.25;;;;;;;0.45;56.74;100622.22;1443878;90;21411;-86
2022/02/20 01:50:48;;;;;;;6.83;3.52;;;;;;;0.42;58.41;100631.48;1455853;89;21357;-86
2022/02/20 01:53:14;;;;;;;8.15;3.92;;;;;;;0.38;58.19;100636.02;1446197;90;21399;-86
2022/02/20 01:55:41;;;;;;;9.05;4.42;;;;;;;0.32;58.93;100631.13;1454253;89;21425;-86
2022/02/20 01:58:07;;;;;;;8.05;4.08;;;;;;;0.28;58.33;100629.58;1433295;90;21369;-85
2022/02/20 02:00:34;;;;;;;9.15;4.35;;;;;;;0.26;58.93;100626.23;1448982;89;21423;-85
2022/02/20 02:03:00;;;;;;;7.78;3.80;;;;;;;0.24;58.94;100628.52;1441628;89;22352;-85
2022/02/20 02:05:27;;;;;;;7.70;3.58;;;;;;;0.20;58.81;100626.50;1457020;89;21350;-84
2022/02/20 02:07:53;;;;;;;9.45;4.40;;;;;;;0.18;59.27;100621.86;1439288;90;21496;-83
2022/02/20 02:10:20;;;;;;;8.50;3.77;;;;;;;0.13;59.77;100619.94;1454721;89;21402;-83
2022/02/20 02:12:46;;;;;;;8.53;3.50;;;;;;;0.12;58.90;100616.96;1438306;90;21354;-83
2022/02/20 02:15:14;;;;;;;6.08;3.62;;;;;;;0.10;58.55;100614.89;1451781;89;21342;-85
2022/02/20 02:17:40;;;;;;;19.17;5.03;;;;;;;0.07;58.54;100617.64;1437962;90;21495;-84
2022/02/20 02:20:09;;;;;;;9.28;3.90;;;;;;;0.08;58.80;100610.20;1451323;90;21424;-83
2022/02/20 02:22:35;;;;;;;9.80;4.75;;;;;;;0.11;59.10;100612.66;1438998;90;21313;-83
2022/02/20 02:25:04;;;;;;;10.82;4.65;;;;;;;0.10;59.30;100608.38;1455263;90;22445;-83
2022/02/20 02:27:30;;;;;;;9.48;3.87;;;;;;;0.10;59.50;100605.77;1441490;89;21523;-82
2022/02/20 02:29:57;;;;;;;14.38;4.28;;;;;;;0.07;59.75;100595.52;1451539;90;22311;-83
2022/02/20 02:32:23;;;;;;;8.15;4.00;;;;;;;0.08;59.73;100595.89;1454954;90;21327;-83
2022/02/20 02:34:49;;;;;;;12.53;4.22;;;;;;;0.04;59.43;100586.57;1452796;89;21335;-83
2022/02/20 02:37:15;;;;;;;9.13;4.40;;;;;;;0.02;59.63;100591.00;1452318;90;22273;-84
2022/02/20 02:39:42;;;;;;;8.63;2.90;;;;;;;0.00;60.56;100584.59;1455749;90;21283;-83
2022/02/20 02:42:10;;;;;;;7.03;3.92;;;;;;;0.02;60.11;100584.49;1455124;90;21408;-84
2022/02/20 02:44:36;;;;;;;7.10;3.58;;;;;;;0.01;60.32;100576.31;1461298;90;21423;-83
2022/02/20 02:47:03;;;;;;;11.50;4.53;;;;;;;0.01;60.59;100578.92;1455022;89;22264;-83
2022/02/20 02:49:30;;;;;;;7.75;3.70;;;;;;;-0.04;59.86;100577.36;1448900;90;21364;-83
2022/02/20 02:51:55;;;;;;;8.33;4.50;;;;;;;-0.06;59.89;100571.42;1449561;90;21387;-83
2022/02/20 02:54:22;;;;;;;15.53;4.93;;;;;;;-0.11;59.52;100559.09;1452692;89;21402;-83
2022/02/20 02:56:50;;;;;;;15.75;5.72;;;;;;;-0.11;59.52;100559.09;1450216;90;21365;-83
2022/02/20 02:59:17;;;;;;;11.10;5.47;;;;;;;-0.03;59.23;100575.17;1457364;89;21423;-83
2022/02/20 03:01:46;;;;;;;12.13;5.90;;;;;;;0.03;58.91;100565.34;1431159;91;21406;-84
2022/02/20 03:04:12;;;;;;;14.15;4.87;;;;;;;0.07;58.65;100557.78;1454390;90;21516;-87
2022/02/20 03:06:38;;;;;;;11.90;5.37;;;;;;;0.12;58.77;100558.40;1458832;89;21416;-87
2022/02/20 03:09:07;;;;;;;10.95;4.25;;;;;;;0.15;58.83;100553.04;1448880;89;21387;-87
2022/02/20 03:11:33;;;;;;;12.07;5.05;;;;;;;0.14;59.77;100554.77;1451464;90;21431;-87
2022/02/20 03:14:01;;;;;;;13.85;4.10;;;;;;;0.08;60.94;100555.09;1453767;89;21505;-87
2022/02/20 03:16:27;;;;;;;11.03;3.80;;;;;;;0.02;60.78;100550.66;1452397;90;21313;-86
2022/02/20 03:18:53;;;;;;;8.60;4.13;;;;;;;-0.01;60.28;100555.09;1455810;89;22385;-86
2022/02/20 03:21:19;;;;;;;9.83;3.70;;;;;;;-0.05;60.43;100556.18;1452019;89;21350;-85
2022/02/20 03:23:45;;;;;;;11.05;4.28;;;;;;;-0.09;60.44;100556.40;1454269;89;21394;-85
2022/02/20 03:26:11;;;;;;;11.90;4.33;;;;;;;-0.14;60.88;100559.25;1458880;89;21409;-86
2022/02/20 03:28:37;;;;;;;8.58;4.17;;;;;;;-0.15;60.57;100554.94;1457866;89;21431;-86
2022/02/20 03:31:04;;;;;;;8.70;4.28;;;;;;;-0.16;59.97;100559.77;1449149;89;22458;-86
2022/02/20 03:33:30;;;;;;;12.35;4.70;;;;;;;-0.15;59.67;100551.04;1459915;89;21387;-87
2022/02/20 03:35:56;;;;;;;11.28;4.37;;;;;;;-0.16;59.56;100546.77;1447886;90;22315;-87
2022/02/20 03:38:23;;;;;;;10.28;3.60;;;;;;;-0.12;59.37;100550.05;1450741;89;21379;-83
2022/02/20 03:40:49;;;;;;;10.28;3.90;;;;;;;-0.09;59.19;100553.33;1440239;89;21392;-83
2022/02/20 03:43:15;;;;;;;9.10;4.55;;;;;;;-0.05;59.11;100549.67;1459313;89;21430;-84
2022/02/20 03:45:41;;;;;;;12.70;4.55;;;;;;;-0.01;58.93;100551.19;1430894;90;21414;-83
2022/02/20 03:48:08;;;;;;;10.93;5.03;;;;;;;0.03;58.69;100545.83;1440999;89;22505;-83
2022/02/20 03:50:34;;;;;;;8.35;3.60;;;;;;;0.06;58.54;100546.97;1422725;90;21486;-84
2022/02/20 03:53:00;;;;;;;11.28;4.37;;;;;;;0.07;58.43;100544.30;1420570;92;21873;-84
2022/02/20 03:55:26;;;;;;;8.80;3.83;;;;;;;0.08;58.47;100549.05;1414678;92;21403;-84
2022/02/20 03:57:52;;;;;;;7.28;3.55;;;;;;;0.06;58.56;100547.84;1420666;92;22175;-83
2022/02/20 04:00:24;;;;;;;11.20;5.15;;;;;;;0.05;58.73;100545.30;1420751;92;21562;-83
2022/02/20 04:02:51;;;;;;;9.75;3.92;;;;;;;0.06;58.61;100543.06;1424568;92;21442;-82
2022/02/20 04:05:19;;;;;;;9.60;4.35;;;;;;;0.06;58.57;100550.88;1425219;92;21450;-82
2022/02/20 04:07:46;;;;;;;9.53;3.65;;;;;;;0.07;58.67;100558.63;1417560;92;21346;-83
2022/02/20 04:10:14;;;;;;;17.45;4.85;;;;;;;0.10;58.56;100544.62;1427209;92;21449;-83
2022/02/20 04:12:42;;;;;;;17.25;5.60;;;;;;;0.12;58.52;100542.78;1418704;92;21514;-83
2022/02/20 04:15:11;;;;;;;12.18;5.08;;;;;;;0.12;58.45;100550.59;1416949;92;22255;-82
2022/02/20 04:17:44;;;;;;;13.48;5.17;;;;;;;0.12;58.52;100542.78;1419058;92;21546;-83
2022/02/20 04:20:12;;;;;;;14.73;5.37;;;;;;;0.12;58.46;100555.80;1413693;92;21302;-82
2022/02/20 04:22:39;;;;;;;10.23;4.92;;;;;;;0.13;58.56;100557.00;1421148;92;21308;-84
2022/02/20 04:25:08;;;;;;;11.85;4.28;;;;;;;0.16;58.33;100561.22;1418083;92;22321;-85
2022/02/20 04:27:35;;;;;;;9.98;4.60;;;;;;;0.16;58.26;100557.31;1423632;92;21352;-84
2022/02/20 04:30:01;;;;;;;9.35;4.12;;;;;;;0.17;58.18;100556.38;1426539;92;21581;-84
2022/02/20 04:32:27;;;;;;;10.95;4.15;;;;;;;0.19;58.14;100554.55;1421454;92;23319;-84
2022/02/20 04:34:53;;;;;;;12.37;5.33;;;;;;;0.17;58.13;100553.78;1417639;92;21353;-84
2022/02/20 04:37:19;;;;;;;8.07;3.53;;;;;;;0.18;58.02;100551.11;1419613;92;21360;-85
2022/02/20 04:39:45;;;;;;;7.62;3.45;;;;;;;0.17;58.12;100549.44;1408888;92;21368;-85
2022/02/20 04:42:11;;;;;;;10.80;4.12;;;;;;;0.19;57.95;100554.55;1421443;92;21323;-85
2022/02/20 04:44:37;;;;;;;11.65;4.70;;;;;;;0.22;57.96;100557.00;1424195;92;22225;-84
2022/02/20 04:47:03;;;;;;;11.35;5.10;;;;;;;0.23;57.87;100553.46;1403104;92;21441;-84
2022/02/20 04:49:29;;;;;;;8.43;4.03;;;;;;;0.25;57.94;100552.09;1430424;92;21509;-84
2022/02/20 04:51:55;;;;;;;16.13;5.13;;;;;;;0.21;58.52;100550.13;1421557;92;21434;-84
2022/02/20 04:54:22;;;;;;;9.45;3.85;;;;;;;0.14;58.47;100539.63;1420888;92;21353;-84
2022/02/20 04:56:48;;;;;;;12.45;4.05;;;;;;;0.07;58.88;100539.10;1422298;92;21278;-84
2022/02/20 04:59:15;;;;;;;9.78;4.40;;;;;;;-0.03;59.33;100532.23;1405390;92;21352;-84
2022/02/20 05:01:41;;;;;;;9.80;6.08;;;;;;;-0.12;59.43;100530.53;1424810;92;21396;-84
2022/02/20 05:04:08;;;;;;;11.70;5.05;;;;;;;-0.21;59.68;100533.13;1397501;92;21338;-84
2022/02/20 05:06:35;;;;;;;8.80;4.03;;;;;;;-0.28;60.05;100522.67;1423457;92;21553;-83
2022/02/20 05:09:02;;;;;;;9.00;3.92;;;;;;;-0.34;60.20;100519.08;1422276;92;21434;-83
2022/02/20 05:11:29;;;;;;;11.48;6.08;;;;;;;-0.38;60.26;100520.96;1429078;92;22270;-84
2022/02/20 05:13:58;;;;;;;15.75;4.70;;;;;;;-0.41;60.35;100526.78;1422921;92;21338;-84
2022/02/20 05:16:26;;;;;;;8.55;4.47;;;;;;;-0.49;60.15;100528.02;1425349;92;21420;-83
2022/02/20 05:18:54;;;;;;;15.85;5.58;;;;;;;-0.51;60.96;100527.70;1418848;92;21473;-83
2022/02/20 05:21:21;;;;;;;15.23;5.95;;;;;;;-0.53;60.78;100529.52;1409375;93;21452;-84
2022/02/20 05:23:47;;;;;;;10.38;4.87;;;;;;;-0.56;60.63;100525.31;1392407;94;21496;-84
2022/02/20 05:26:13;;;;;;;12.60;4.80;;;;;;;-0.55;60.79;100532.18;1403686;93;22436;-84
2022/02/20 05:28:41;;;;;;;11.28;5.37;;;;;;;-0.55;60.79;100538.69;1391943;93;21637;-84
2022/02/20 05:31:07;;;;;;;11.22;4.22;;;;;;;-0.57;60.83;100537.94;1409556;92;21452;-84
2022/02/20 05:33:33;;;;;;;16.27;5.33;;;;;;;-0.57;61.37;100536.63;1399539;92;22465;-84
2022/02/20 05:36:00;;;;;;;11.50;5.42;;;;;;;-0.57;61.15;100535.34;1417008;91;21385;-83
2022/02/20 05:38:26;;;;;;;13.68;5.47;;;;;;;-0.58;60.99;100534.93;1396758;94;21341;-84
2022/02/20 05:40:52;;;;;;;14.35;5.83;;;;;;;-0.55;61.05;100534.78;1392409;93;21438;-84
2022/02/20 05:43:19;;;;;;;15.80;5.47;;;;;;;-0.54;61.04;100529.98;1397498;93;21371;-85
2022/02/20 05:45:45;;;;;;;12.15;5.90;;;;;;;-0.52;60.96;100526.00;1400155;93;21430;-85
2022/02/20 05:48:11;;;;;;;13.62;5.33;;;;;;;-0.51;61.04;100530.30;1404556;93;22236;-86
2022/02/20 05:50:38;;;;;;;14.83;6.65;;;;;;;-0.50;60.91;100522.88;1406703;92;21415;-84
2022/02/20 05:53:04;;;;;;;13.30;6.20;;;;;;;-0.48;61.25;100530.15;1427782;91;21407;-83
2022/02/20 05:55:31;;;;;;;18.17;6.80;;;;;;;-0.47;61.16;100521.42;1414953;92;21348;-84
2022/02/20 05:57:57;;;;;;;10.95;5.00;;;;;;;-0.44;61.52;100532.13;1420445;91;22500;-84
2022/02/20 06:00:27;;;;;;;17.52;5.37;;;;;;;-0.46;61.77;100534.83;1411239;92;21386;-84
2022/02/20 06:02:54;;;;;;;14.65;5.15;;;;;;;-0.50;61.90;100531.51;1415963;90;21414;-84
2022/02/20 06:05:20;;;;;;;17.32;6.87;;;;;;;-0.50;61.80;100527.61;1408569;92;21400;-84
2022/02/20 06:07:47;;;;;;;16.05;5.55;;;;;;;-0.51;61.80;100532.90;1422550;92;21340;-83
2022/02/20 06:10:14;;;;;;;17.12;6.78;;;;;;;-0.54;62.01;100531.28;1425320;92;22473;-83
2022/02/20 06:12:40;;;;;;;16.97;7.10;;;;;;;-0.56;61.89;100530.52;1419729;90;21327;-84
2022/02/20 06:15:08;;;;;;;19.25;7.70;;;;;;;-0.54;61.79;100522.65;1420307;92;21378;-83
2022/02/20 06:17:34;;;;;;;23.67;10.28;;;;;;;-0.54;61.72;100513.09;1421463;90;21429;-84
2022/02/20 06:20:01;;;;;;;23.30;10.58;;;;;;;-0.54;62.21;100506.59;1416482;91;21408;-84
2022/02/20 06:22:27;;;;;;;22.70;9.70;;;;;;;-0.57;62.41;100501.54;1426509;91;23768;-85
2022/02/20 06:24:53;;;;;;;23.20;10.25;;;;;;;-0.58;62.47;100501.59;1410958;92;21526;-83
2022/02/20 06:27:20;;;;;;;23.22;10.13;;;;;;;-0.59;62.37;100491.66;1415256;92;22376;-83
2022/02/20 06:29:46;;;;;;;29.37;11.95;;;;;;;-0.59;62.03;100500.77;1404338;91;21393;-83
2022/02/20 06:32:12;;;;;;;31.25;10.10;;;;;;;-0.56;61.92;100498.02;1399702;92;21446;-84
2022/02/20 06:34:38;;;;;;;29.50;11.73;;;;;;;-0.49;61.84;100506.34;1413375;90;22647;-84
2022/02/20 06:37:05;;;;;;;26.85;10.40;;;;;;;-0.41;61.69;100500.77;1416037;91;22679;-84
2022/02/20 06:39:34;;;;;;;25.37;10.80;;;;;;;-0.36;61.51;100498.33;1420528;92;21305;-83
2022/02/20 06:42:00;;;;;;;26.37;10.40;;;;;;;-0.26;61.15;100498.70;1420675;90;23107;-82
2022/02/20 06:44:26;;;;;;;23.38;9.70;;;;;;;-0.10;60.98;100506.59;1415062;92;21357;-84
2022/02/20 06:46:52;;;;;;;19.60;9.38;;;;;;;0.08;60.48;100511.31;1426460;91;21452;-83
2022/02/20 06:49:18;;;;;;;24.80;10.80;;;;;;;0.28;60.27;100512.42;1427639;90;22300;-83
2022/02/20 06:51:45;;;;;;;29.07;10.70;;;;;;;0.47;59.44;100508.41;1415502;92;21578;-84
2022/02/20 06:54:11;;;;;;;26.27;10.45;;;;;;;0.68;59.00;100501.20;1420063;90;21393;-83
2022/02/20 06:56:37;;;;;;;24.82;9.58;;;;;;;0.89;58.69;100508.30;1413494;92;21445;-83
2022/02/20 06:59:03;;;;;;;21.15;9.48;;;;;;;1.11;58.26;100498.85;1421606;92;21430;-84
2022/02/20 07:01:29;;;;;;;19.92;9.38;;;;;;;1.35;57.27;100501.40;1402454;92;21438;-85
2022/02/20 07:03:55;;;;;;;21.63;8.13;;;;;;;1.59;56.86;100498.31;1419326;92;21437;-83
2022/02/20 07:06:21;;;;;;;23.33;10.20;;;;;;;1.85;55.80;100497.27;1418269;91;22818;-85
2022/02/20 07:08:50;;;;;;;24.03;9.73;;;;;;;2.10;55.80;100505.77;1413362;89;23774;-85
2022/02/20 07:11:15;;;;;;;21.50;8.83;;;;;;;2.35;54.26;100500.75;1425109;92;23764;-85
2022/02/20 07:13:41;;;;;;;16.70;7.93;;;;;;;2.60;53.24;100502.70;1426051;91;22762;-85
2022/02/20 07:16:08;;;;;;;15.40;7.03;;;;;;;2.84;53.57;100495.58;1395726;92;21665;-84
2022/02/20 07:18:34;;;;;;;12.27;5.87;;;;;;;3.08;51.69;100496.66;1426070;92;21467;-85
2022/02/20 07:21:00;;;;;;;17.67;6.90;;;;;;;3.34;51.97;100500.68;1414995;91;21624;-86
2022/02/20 07:23:26;;;;;;;15.53;7.63;;;;;;;3.57;50.53;100497.39;1409755;92;21564;-86
2022/02/20 07:25:52;;;;;;;10.23;5.30;;;;;;;3.81;49.52;100495.39;1403733;92;22603;-85
2022/02/20 07:28:18;;;;;;;15.90;6.90;;;;;;;4.03;49.47;100498.25;1417693;90;21593;-86
2022/02/20 07:30:44;;;;;;;22.30;9.20;;;;;;;4.29;49.07;100496.47;1416711;91;22382;-86
2022/02/20 07:33:12;;;;;;;20.43;8.63;;;;;;;4.61;49.41;100486.01;1401986;93;21854;-88
2022/02/20 07:35:40;;;;;;;12.30;6.60;;;;;;;4.84;49.80;100481.28;1392478;93;21881;-87
2022/02/20 07:38:06;;;;;;;34.07;15.50;;;;;;;5.03;49.34;100485.19;1394635;92;22305;-86
2022/02/20 07:40:34;;;;;;;59.53;26.23;;;;;;;5.21;48.42;100478.63;1409316;92;22171;-86
2022/02/20 07:43:00;;;;;;;34.00;18.60;;;;;;;5.25;48.27;100485.80;1395817;94;23451;-87
2022/02/20 07:45:27;;;;;;;12.87;6.87;;;;;;;5.25;48.27;100485.80;1407483;92;22216;-86
2022/02/20 07:47:59;;;;;;;15.40;7.10;;;;;;;5.20;48.13;100485.64;1397290;92;22182;-85
2022/02/20 07:50:30;;;;;;;17.37;8.50;;;;;;;5.19;49.24;100487.08;1404919;92;22179;-87
2022/02/20 07:52:57;;;;;;;20.37;10.00;;;;;;;5.12;48.65;100485.83;1424162;92;22061;-87
2022/02/20 07:55:24;;;;;;;29.77;12.50;;;;;;;5.07;49.15;100489.29;1385531;94;21519;-87
2022/02/20 07:57:51;;;;;;;16.60;9.27;;;;;;;5.01;48.66;100491.05;1408958;93;22069;-87
2022/02/20 08:00:21;;;;;;;19.73;9.00;;;;;;;5.00;49.29;100499.84;1398726;93;22075;-87
2022/02/20 08:02:48;;;;;;;14.68;5.97;;;;;;;4.97;49.65;100506.97;1396945;93;22994;-87
2022/02/20 08:05:14;;;;;;;16.40;6.43;;;;;;;4.95;49.10;100505.44;1403513;93;21622;-86
2022/02/20 08:07:40;;;;;;;17.13;7.03;;;;;;;4.93;49.64;100507.32;1397999;93;22281;-86
2022/02/20 08:10:07;;;;;;;20.40;7.27;;;;;;;4.94;49.37;100501.95;1403361;92;23191;-87
2022/02/20 08:12:34;;;;;;;18.37;5.70;;;;;;;4.98;49.59;100492.94;1381575;92;22113;-88
2022/02/20 08:15:00;;;;;;;13.70;5.57;;;;;;;5.10;49.32;100494.31;1419639;92;22142;-87
2022/02/20 08:17:26;;;;;;;11.40;6.30;;;;;;;5.22;49.38;100482.09;1423362;91;22140;-87
2022/02/20 08:19:53;;;;;;;12.77;5.67;;;;;;;5.34;49.08;100480.70;1420291;90;22250;-86
2022/02/20 08:22:19;;;;;;;12.80;5.70;;;;;;;5.48;48.31;100481.48;1440553;90;22265;-86
2022/02/20 08:24:45;;;;;;;10.90;5.20;;;;;;;5.66;48.75;100472.22;1441866;89;22156;-89
2022/02/20 08:27:14;;;;;;;11.67;6.00;;;;;;;5.92;48.75;100474.67;1458930;89;22081;-88
2022/02/20 08:29:41;;;;;;;16.63;6.40;;;;;;;6.15;47.14;100482.16;1460569;89;21382;-89
2022/02/20 08:32:08;;;;;;;11.03;5.80;;;;;;;6.41;46.93;100485.39;1456208;89;21354;-88
2022/02/20 08:34:36;;;;;;;10.07;4.17;;;;;;;6.52;45.51;100463.87;1452316;89;21641;-88
2022/02/20 08:37:07;;;;;;;13.40;6.13;;;;;;;6.67;44.65;100484.18;1452679;89;21382;-88
2022/02/20 08:39:34;;;;;;;9.47;3.70;;;;;;;6.74;44.50;100480.61;1457239;89;22312;-89
2022/02/20 08:42:01;;;;;;;12.83;5.33;;;;;;;6.77;44.09;100490.40;1457210;89;21338;-90
2022/02/20 08:44:27;;;;;;;10.53;4.83;;;;;;;6.84;44.74;100488.59;1456341;89;22533;-89
2022/02/20 08:46:54;;;;;;;10.43;4.23;;;;;;;6.96;44.27;100490.23;1460418;89;21921;-88
2022/02/20 08:49:20;;;;;;;11.57;3.97;;;;;;;7.21;43.09;100473.31;1451826;89;21354;-93
2022/02/20 08:51:46;;;;;;;14.47;5.03;;;;;;;7.31;40.97;100476.88;1451860;89;21405;-91
2022/02/20 08:54:12;;;;;;;11.53;4.37;;;;;;;7.31;41.90;100491.81;1450658;89;21456;-91
2022/02/20 08:56:38;;;;;;;9.47;3.70;;;;;;;7.37;43.15;100487.39;1453800;89;21353;-90
2022/02/20 08:59:04;;;;;;;9.73;4.40;;;;;;;7.43;42.03;100485.57;1450798;89;21353;-90
2022/02/20 09:01:30;;;;;;;7.47;3.90;;;;;;;7.35;42.74;100480.09;1445163;89;21405;-89
2022/02/20 09:04:02;;;;;;;11.60;5.07;;;;;;;7.30;43.19;100475.19;1435091;90;21426;-87
2022/02/20 09:06:24;;;;;;;17.63;4.73;;;;;;;7.26;43.51;100484.31;1442843;90;21529;-93
2022/02/20 09:08:52;;;;;;;9.93;4.27;;;;;;;7.27;43.76;100477.25;1448049;89;21362;-92
2022/02/20 09:11:19;;;;;;;17.80;4.20;;;;;;;7.24;43.90;100476.52;1432698;90;21412;-89
2022/02/20 09:13:45;;;;;;;8.30;3.17;;;;;;;7.18;43.55;100470.45;1435000;90;21273;-92
2022/02/20 09:16:11;;;;;;;7.57;3.67;;;;;;;7.09;44.46;100469.88;1441713;90;21346;-90
2022/02/20 09:18:37;;;;;;;14.13;5.30;;;;;;;7.07;44.44;100469.16;1443679;90;21331;-88
2022/02/20 09:21:03;;;;;;;10.43;4.93;;;;;;;7.07;44.78;100470.48;1446079;89;22580;-89
2022/02/20 09:23:29;;;;;;;9.77;4.97;;;;;;;7.09;45.10;100473.83;1438065;90;21435;-89
2022/02/20 09:25:56;;;;;;;9.80;4.70;;;;;;;7.16;45.57;100483.38;1443226;90;22262;-91
2022/02/20 09:28:22;;;;;;;10.17;4.67;;;;;;;7.12;45.65;100478.84;1444048;90;21479;-92
2022/02/20 09:30:48;;;;;;;11.37;4.87;;;;;;;7.03;45.96;100473.50;1444375;90;21375;-93
2022/02/20 09:33:15;;;;;;;15.03;5.87;;;;;;;6.96;46.21;100482.34;1445920;90;21318;-90
2022/02/20 09:35:41;;;;;;;11.07;5.33;;;;;;;6.87;46.66;100481.28;1439918;90;22881;-90
2022/02/20 09:38:07;;;;;;;15.90;5.53;;;;;;;6.85;47.02;100492.89;1441169;90;21427;-91
2022/02/20 09:40:34;;;;;;;11.53;5.00;;;;;;;6.85;48.15;100506.91;1439966;90;21390;-91
2022/02/20 09:43:01;;;;;;;10.73;4.53;;;;;;;6.94;47.90;100515.86;1442616;90;21457;-91
2022/02/20 09:45:27;;;;;;;11.10;4.77;;;;;;;7.02;47.71;100521.36;1413716;91;21476;-92
2022/02/20 09:47:53;;;;;;;10.30;4.03;;;;;;;7.07;47.81;100524.43;1445199;90;21471;-90
2022/02/20 09:50:20;;;;;;;10.37;4.33;;;;;;;7.07;47.73;100515.70;1440455;90;21345;-90
2022/02/20 09:52:46;;;;;;;7.90;3.80;;;;;;;7.03;48.18;100516.44;1444826;90;23278;-91
2022/02/20 09:55:12;;;;;;;11.03;4.00;;;;;;;7.05;48.28;100511.89;1443363;90;21485;-90
2022/02/20 09:57:38;;;;;;;7.67;4.03;;;;;;;7.15;48.35;100506.23;1442199;90;22358;-91
2022/02/20 10:00:08;;;;;;;14.67;4.40;;;;;;;7.20;48.49;100503.24;1438378;90;21317;-93
2022/02/20 10:02:40;;;;;;;10.27;3.93;;;;;;;7.23;48.77;100489.83;1411921;92;21538;-87
2022/02/20 10:05:08;;;;;;;13.43;4.27;;;;;;;7.41;49.12;100490.12;1414216;92;21399;-88
2022/02/20 10:07:39;;;;;;;8.87;3.83;;;;;;;7.58;48.52;100489.56;1371775;94;21514;-89
2022/02/20 10:10:25;;;;;;;9.18;4.03;;;;;;;7.96;48.52;100481.58;1410252;92;21449;-87
2022/02/20 10:13:03;;;;;;;9.17;4.30;;;;;;;8.16;48.09;100485.65;1407080;92;22285;-87
2022/02/20 10:15:35;;;;;;;12.20;4.30;;;;;;;8.16;48.12;100488.28;1449527;90;22351;-87
2022/02/20 10:18:14;;;;;;;14.17;6.03;;;;;;;8.54;47.95;100491.13;1437870;90;22572;-89
2022/02/20 10:20:41;;;;;;;11.47;5.00;;;;;;;9.57;46.43;100482.50;1413720;92;21568;-86
2022/02/20 10:23:15;;;;;;;9.10;4.17;;;;;;;10.43;45.25;100474.55;1440041;90;22462;-88
2022/02/20 10:25:40;;;;;;;20.13;8.87;;;;;;;11.02;43.75;100464.02;1444740;90;22417;-89
2022/02/20 10:28:08;;;;;;;19.60;6.40;;;;;;;11.65;43.32;100465.26;1412124;90;21440;-89
2022/02/20 10:30:35;;;;;;;16.63;6.53;;;;;;;12.21;42.80;100471.63;1422742;90;22380;-86
2022/02/20 10:33:16;;;;;;;8.10;4.00;;;;;;;12.65;41.88;100462.54;1403713;92;21419;-89
2022/02/20 10:35:46;;;;;;;10.27;2.67;;;;;;;12.97;41.62;100460.98;1446159;90;21479;-88
2022/02/20 10:38:16;;;;;;;11.60;2.58;;;;;;;12.58;38.48;100450.91;1448070;89;21613;-87
2022/02/20 10:40:47;;;;;;;9.33;3.20;;;;;;;12.09;39.48;100459.12;1441721;89;22594;-87
2022/02/20 10:43:34;;;;;;;5.80;2.17;;;;;;;11.75;39.91;100452.73;1404289;92;21420;-87
2022/02/20 10:46:17;;;;;;;4.23;2.20;;;;;;;11.42;39.79;100452.12;1403980;92;21390;-86
2022/02/20 10:48:49;;;;;;;6.57;2.17;;;;;;;10.91;40.20;100439.89;1445016;89;21568;-86
2022/02/20 10:51:18;;;;;;;10.43;3.13;;;;;;;10.48;41.28;100452.47;1438712;90;21389;-86
2022/02/20 10:53:49;;;;;;;5.60;2.60;;;;;;;10.26;41.50;100452.30;1442261;90;21878;-87
2022/02/20 10:56:16;;;;;;;5.97;2.47;;;;;;;10.16;40.98;100460.28;1444915;90;21353;-86
2022/02/20 10:58:46;;;;;;;6.63;2.43;;;;;;;10.01;41.89;100453.77;1435011;90;22394;-86
2022/02/20 11:01:26;;;;;;;8.95;2.60;;;;;;;9.91;42.12;100442.73;1437198;90;21522;-86
2022/02/20 11:04:14;;;;;;;8.27;3.17;;;;;;;9.78;42.35;100435.62;1438360;90;21338;-85
2022/02/20 11:06:38;;;;;;;8.40;3.03;;;;;;;9.76;42.77;100445.48;1442614;90;22580;-85
2022/02/20 11:09:06;;;;;;;8.43;3.53;;;;;;;9.71;43.02;100433.17;1443580;90;21582;-86
2022/02/20 11:11:40;;;;;;;10.67;4.13;;;;;;;9.73;43.52;100436.52;1408606;92;22262;-88
2022/02/20 11:14:10;;;;;;;4.57;2.60;;;;;;;9.75;43.00;100413.41;1438451;90;21441;-86
2022/02/20 11:16:47;;;;;;;6.87;2.67;;;;;;;9.72;43.29;100416.33;1397732;92;21634;-85
2022/02/20 11:19:18;;;;;;;6.93;3.07;;;;;;;9.72;43.69;100408.41;1436349;90;21353;-86
2022/02/20 11:21:47;;;;;;;8.75;3.62;;;;;;;9.82;43.45;100415.84;1426677;91;22324;-85
2022/02/20 11:24:15;;;;;;;11.00;3.20;;;;;;;10.12;42.21;100413.93;1427970;91;21347;-87